Time;durP1;ratioP1;P1;durP2;ratioP2;P2;SDS_P1;SDS_P2;PMS_P1;PMS_P2;Temp;Humidity;BMP_temperature;BMP_pressure;BME280_temperature;BME280_humidity;BME280_pressure;Samples;Min_cycle;Max_cycle;Signal;HPM_P1;HPM_P2
2023/12/04 00:03:03;;;;;;;;;;;1.70;99.90;;;;;;8408452;28;19964;-72
2023/12/04 00:07:04;;;;;;;;;;;1.70;99.90;;;;;;8405968;28;20316;-72
2023/12/04 00:11:06;;;;;;;;;;;1.80;99.90;;;;;;8401740;28;20364;-72
2023/12/04 00:15:08;;;;;;;;;;;1.80;99.90;;;;;;8405340;28;20447;-72
2023/12/04 00:19:10;;;;;;;;;;;1.80;99.90;;;;;;8403573;28;19982;-72
2023/12/04 00:23:11;;;;;;;;;;;1.80;99.90;;;;;;8405138;28;19971;-73
2023/12/04 00:27:13;;;;;;;;;;;1.90;99.90;;;;;;8414228;28;19978;-73
2023/12/04 00:31:15;;;;;;;;;;;1.90;99.90;;;;;;8420261;28;19983;-73
2023/12/04 00:35:16;;;;;;;;;;;1.90;99.90;;;;;;8418212;28;19924;-72
2023/12/04 00:39:18;;;;;;;;;;;1.90;99.90;;;;;;8416051;28;19924;-73
2023/12/04 00:43:20;;;;;;;;;;;1.90;99.90;;;;;;8405089;28;20403;-72
2023/12/04 00:47:21;;;;;;;;;;;1.90;99.90;;;;;;8426835;28;19930;-72
2023/12/04 00:51:23;;;;;;;;;;;1.90;99.90;;;;;;8426013;28;19930;-72
2023/12/04 00:55:25;;;;;;;;;;;1.90;99.90;;;;;;8416524;28;20038;-72
2023/12/04 00:59:26;;;;;;;;;;;1.90;99.90;;;;;;8421831;28;22178;-72
2023/12/04 01:03:28;;;;;;;;;;;1.80;99.90;;;;;;8411061;28;19961;-72
2023/12/04 01:07:30;;;;;;;;;;;1.80;99.90;;;;;;8411185;28;20383;-72
2023/12/04 01:11:31;;;;;;;;;;;1.80;99.90;;;;;;8408749;28;22600;-72
2023/12/04 01:15:33;;;;;;;;;;;1.90;99.90;;;;;;8405724;28;19967;-72
2023/12/04 01:19:35;;;;;;;;;;;1.90;99.90;;;;;;8409784;28;19924;-73
2023/12/04 01:23:36;;;;;;;;;;;1.80;99.90;;;;;;8410094;28;19932;-72
2023/12/04 01:27:38;;;;;;;;;;;1.80;99.90;;;;;;8432041;28;19932;-72
2023/12/04 01:31:40;;;;;;;;;;;1.90;99.90;;;;;;8434089;28;19931;-72
2023/12/04 01:35:41;;;;;;;;;;;1.90;99.90;;;;;;8416089;28;20394;-72
2023/12/04 01:39:43;;;;;;;;;;;1.80;99.90;;;;;;8418071;28;20384;-72
2023/12/04 01:43:45;;;;;;;;;;;1.80;99.90;;;;;;8432722;28;20351;-72
2023/12/04 01:47:47;;;;;;;;;;;1.80;99.90;;;;;;8417945;28;19932;-72
2023/12/04 01:51:49;;;;;;;;;;;1.70;99.90;;;;;;8414463;28;19932;-72
2023/12/04 01:55:50;;;;;;;;;;;1.70;99.90;;;;;;8412632;28;19924;-74
2023/12/04 01:59:52;;;;;;;;;;;1.70;99.90;;;;;;8412178;28;19927;-72
2023/12/04 02:03:54;;;;;;;;;;;1.70;99.90;;;;;;8431015;28;19931;-73
2023/12/04 02:07:55;;;;;;;;;;;1.70;99.90;;;;;;8432292;28;19973;-72
2023/12/04 02:11:58;;;;;;;;;;;1.70;99.90;;;;;;8409483;28;20429;-73
2023/12/04 02:16:01;;;;;;;;;;;1.70;99.90;;;;;;8416567;28;19932;-73
2023/12/04 02:20:05;;;;;;;;;;;1.70;99.90;;;;;;8407137;28;19932;-72
2023/12/04 02:24:06;;;;;;;;;;;1.80;99.90;;;;;;8409468;28;19943;-72
2023/12/04 02:28:11;;;;;;;;;;;1.80;99.90;;;;;;8412940;28;20019;-73
2023/12/04 02:32:15;;;;;;;;;;;1.80;99.90;;;;;;8418994;28;19928;-72
2023/12/04 02:36:17;;;;;;;;;;;1.80;99.90;;;;;;8418986;28;19932;-72
2023/12/04 02:40:19;;;;;;;;;;;1.80;99.90;;;;;;8406756;28;19967;-72
2023/12/04 02:44:20;;;;;;;;;;;1.80;99.90;;;;;;8416054;28;20424;-72
2023/12/04 02:48:22;;;;;;;;;;;1.80;99.90;;;;;;8428818;28;19928;-72
2023/12/04 02:52:24;;;;;;;;;;;1.80;99.90;;;;;;8425513;28;20325;-72
2023/12/04 02:56:26;;;;;;;;;;;1.80;99.90;;;;;;8432568;28;19977;-72
2023/12/04 03:00:28;;;;;;;;;;;1.80;99.90;;;;;;8412460;28;19930;-72
2023/12/04 03:04:30;;;;;;;;;;;1.80;99.90;;;;;;8405868;28;19967;-72
2023/12/04 03:08:32;;;;;;;;;;;1.80;99.90;;;;;;8422526;28;20003;-73
2023/12/04 03:12:33;;;;;;;;;;;1.80;99.90;;;;;;8406168;28;19967;-72
2023/12/04 03:16:35;;;;;;;;;;;1.80;99.90;;;;;;8404039;28;19932;-72
2023/12/04 03:20:36;;;;;;;;;;;1.80;99.90;;;;;;8408705;28;19967;-72
2023/12/04 03:24:38;;;;;;;;;;;1.70;99.90;;;;;;8411702;28;19940;-72
2023/12/04 03:28:40;;;;;;;;;;;1.70;99.90;;;;;;8413472;28;19931;-73
2023/12/04 03:32:41;;;;;;;;;;;1.70;99.90;;;;;;8418268;28;19924;-72
2023/12/04 03:36:43;;;;;;;;;;;1.70;99.90;;;;;;8407993;28;19924;-72
2023/12/04 03:40:45;;;;;;;;;;;1.70;99.90;;;;;;8406704;28;19970;-72
2023/12/04 03:44:46;;;;;;;;;;;1.70;99.90;;;;;;8406500;28;19952;-72
2023/12/04 03:48:48;;;;;;;;;;;1.70;99.90;;;;;;8407473;28;19967;-72
2023/12/04 03:52:50;;;;;;;;;;;1.70;99.90;;;;;;8405565;28;21986;-72
2023/12/04 03:56:51;;;;;;;;;;;1.70;99.90;;;;;;8446870;27;19975;-72
2023/12/04 04:00:53;;;;;;;;;;;1.70;99.90;;;;;;8408010;28;19963;-72
2023/12/04 04:04:55;;;;;;;;;;;1.70;99.90;;;;;;8404579;28;19932;-72
2023/12/04 04:08:56;;;;;;;;;;;1.70;99.90;;;;;;8406929;28;20026;-73
2023/12/04 04:12:58;;;;;;;;;;;1.70;99.90;;;;;;8406242;28;20097;-72
2023/12/04 04:17:00;;;;;;;;;;;1.70;99.90;;;;;;8403551;28;19931;-72
2023/12/04 04:21:02;;;;;;;;;;;1.70;99.90;;;;;;8408534;28;19932;-73
2023/12/04 04:25:07;;;;;;;;;;;1.70;99.90;;;;;;8408570;28;20448;-73
2023/12/04 04:29:09;;;;;;;;;;;1.70;99.90;;;;;;8433313;28;19923;-72
2023/12/04 04:33:11;;;;;;;;;;;1.70;99.90;;;;;;8423457;28;20013;-71
2023/12/04 04:37:13;;;;;;;;;;;1.70;99.90;;;;;;8423451;28;19928;-72
2023/12/04 04:41:17;;;;;;;;;;;1.70;99.90;;;;;;8415262;28;19932;-72
2023/12/04 04:45:19;;;;;;;;;;;1.70;99.90;;;;;;8426322;28;19932;-72
2023/12/04 04:49:21;;;;;;;;;;;1.80;99.90;;;;;;8418622;28;19967;-72
2023/12/04 04:53:22;;;;;;;;;;;1.80;99.90;;;;;;8408909;28;19932;-73
2023/12/04 04:57:24;;;;;;;;;;;1.80;99.90;;;;;;8405951;28;19928;-73
2023/12/04 05:01:26;;;;;;;;;;;1.80;99.90;;;;;;8411320;28;19993;-72
2023/12/04 05:05:28;;;;;;;;;;;1.70;99.90;;;;;;8413574;28;19967;-72
2023/12/04 05:09:29;;;;;;;;;;;1.70;99.90;;;;;;8419430;28;19928;-72
2023/12/04 05:13:31;;;;;;;;;;;1.70;99.90;;;;;;8427205;28;19947;-72
2023/12/04 05:17:33;;;;;;;;;;;1.70;99.90;;;;;;8419881;28;20356;-72
2023/12/04 05:21:34;;;;;;;;;;;1.70;99.90;;;;;;8422008;28;19990;-72
2023/12/04 05:25:36;;;;;;;;;;;1.70;99.90;;;;;;8422905;28;19931;-72
2023/12/04 05:29:46;;;;;;;;;;;1.70;99.90;;;;;;8417757;28;19924;-72
2023/12/04 05:33:48;;;;;;;;;;;1.70;99.90;;;;;;8417341;28;20366;-72
2023/12/04 05:37:50;;;;;;;;;;;1.70;99.90;;;;;;8424316;28;19924;-72
2023/12/04 05:41:51;;;;;;;;;;;1.70;99.90;;;;;;8434381;28;19924;-73
2023/12/04 05:45:53;;;;;;;;;;;1.70;99.90;;;;;;8434138;28;19923;-73
2023/12/04 05:49:55;;;;;;;;;;;1.70;99.90;;;;;;8434840;28;20307;-72
2023/12/04 05:53:57;;;;;;;;;;;1.70;99.90;;;;;;8441699;28;19939;-72
2023/12/04 05:57:58;;;;;;;;;;;1.70;99.90;;;;;;8435848;28;19932;-72
2023/12/04 06:02:01;;;;;;;;;;;1.70;99.90;;;;;;8437361;28;19944;-73
2023/12/04 06:06:03;;;;;;;;;;;1.70;99.90;;;;;;8442537;28;20006;-72
2023/12/04 06:10:06;;;;;;;;;;;1.70;99.90;;;;;;8419011;28;20397;-72
2023/12/04 06:14:08;;;;;;;;;;;1.70;99.90;;;;;;8421341;28;19931;-72
2023/12/04 06:18:10;;;;;;;;;;;1.80;99.90;;;;;;8423050;28;20359;-73
2023/12/04 06:22:11;;;;;;;;;;;1.70;99.90;;;;;;8429240;28;19931;-72
2023/12/04 06:26:13;;;;;;;;;;;1.70;99.90;;;;;;8427437;28;19928;-72
2023/12/04 06:30:15;;;;;;;;;;;1.70;99.90;;;;;;8419012;28;19935;-73
2023/12/04 06:34:17;;;;;;;;;;;1.70;99.90;;;;;;8430431;28;19935;-72
2023/12/04 06:38:23;;;;;;;;;;;1.80;99.90;;;;;;8436292;28;19924;-73
2023/12/04 06:42:25;;;;;;;;;;;1.80;99.90;;;;;;8418185;28;19964;-72
2023/12/04 06:46:28;;;;;;;;;;;1.80;99.90;;;;;;8425616;28;19970;-72
2023/12/04 06:50:30;;;;;;;;;;;1.70;99.90;;;;;;8432670;28;19946;-72
2023/12/04 06:54:32;;;;;;;;;;;1.70;99.90;;;;;;8420251;28;20284;-72
2023/12/04 06:58:33;;;;;;;;;;;1.80;99.90;;;;;;8425382;28;19924;-72
2023/12/04 07:02:35;;;;;;;;;;;1.70;99.90;;;;;;8426807;28;19973;-72
2023/12/04 07:06:40;;;;;;;;;;;1.80;99.90;;;;;;8424607;28;19924;-72
2023/12/04 07:10:41;;;;;;;;;;;1.80;99.90;;;;;;8422194;28;19936;-72
2023/12/04 07:14:43;;;;;;;;;;;1.80;99.90;;;;;;8414263;28;19924;-73
2023/12/04 07:18:45;;;;;;;;;;;1.80;99.90;;;;;;8413091;28;20325;-72
2023/12/04 07:22:46;;;;;;;;;;;1.80;99.90;;;;;;8432814;28;20279;-72
2023/12/04 07:26:48;;;;;;;;;;;1.80;99.90;;;;;;8421578;28;20000;-72
2023/12/04 07:30:50;;;;;;;;;;;1.80;99.90;;;;;;8419065;28;20442;-72
2023/12/04 07:34:52;;;;;;;;;;;1.80;99.90;;;;;;8426478;28;20011;-72
2023/12/04 07:38:54;;;;;;;;;;;1.90;99.90;;;;;;8430098;28;19924;-72
2023/12/04 07:42:56;;;;;;;;;;;1.90;99.90;;;;;;8425262;28;20387;-72
2023/12/04 07:46:58;;;;;;;;;;;1.90;99.90;;;;;;8425144;28;19931;-73
2023/12/04 07:50:59;;;;;;;;;;;1.90;99.90;;;;;;8431215;28;20356;-72
2023/12/04 07:55:01;;;;;;;;;;;1.90;99.90;;;;;;8436949;28;19924;-72
2023/12/04 07:59:03;;;;;;;;;;;1.90;99.90;;;;;;8429802;28;19932;-72
2023/12/04 08:03:04;;;;;;;;;;;1.90;99.90;;;;;;8430629;28;19932;-72
2023/12/04 08:07:06;;;;;;;;;;;1.90;99.90;;;;;;8434911;28;20211;-72
2023/12/04 08:11:09;;;;;;;;;;;2.00;99.90;;;;;;8425328;28;19932;-73
2023/12/04 08:15:11;;;;;;;;;;;2.00;99.90;;;;;;8424562;28;20397;-72
2023/12/04 08:19:13;;;;;;;;;;;2.00;99.90;;;;;;8425293;28;20551;-72
2023/12/04 08:23:15;;;;;;;;;;;2.00;99.90;;;;;;8422255;28;19925;-72
2023/12/04 08:27:16;;;;;;;;;;;2.00;99.90;;;;;;8413118;28;20626;-71
2023/12/04 08:31:18;;;;;;;;;;;2.10;99.90;;;;;;8417481;28;20046;-72
2023/12/04 08:35:20;;;;;;;;;;;2.10;99.90;;;;;;8444322;28;20038;-72
2023/12/04 08:39:22;;;;;;;;;;;2.10;99.90;;;;;;8431684;28;19928;-72
2023/12/04 08:43:24;;;;;;;;;;;2.10;99.90;;;;;;8425644;28;19924;-72
2023/12/04 08:47:25;;;;;;;;;;;2.10;99.90;;;;;;8425916;28;19924;-71
2023/12/04 08:51:27;;;;;;;;;;;2.20;99.90;;;;;;8425690;28;19935;-72
2023/12/04 08:55:29;;;;;;;;;;;2.20;99.90;;;;;;8420905;28;19993;-71
2023/12/04 08:59:31;;;;;;;;;;;2.30;99.90;;;;;;8427245;28;19931;-71
2023/12/04 09:03:32;;;;;;;;;;;2.30;99.90;;;;;;8430996;28;19943;-72
2023/12/04 09:07:35;;;;;;;;;;;2.30;99.90;;;;;;8417547;28;19924;-72
2023/12/04 09:11:43;;;;;;;;;;;2.40;99.90;;;;;;8426886;28;19932;-72
2023/12/04 09:15:45;;;;;;;;;;;2.40;99.90;;;;;;8426040;28;20026;-72
2023/12/04 09:19:46;;;;;;;;;;;2.50;99.90;;;;;;8425747;28;19928;-72
2023/12/04 09:23:49;;;;;;;;;;;2.50;99.90;;;;;;8428974;28;20387;-72
2023/12/04 09:27:51;;;;;;;;;;;2.60;99.90;;;;;;8425846;28;19924;-73
2023/12/04 09:31:53;;;;;;;;;;;2.60;99.90;;;;;;8427334;28;19971;-72
2023/12/04 09:35:55;;;;;;;;;;;2.60;99.90;;;;;;8427513;28;20363;-72
2023/12/04 09:39:57;;;;;;;;;;;2.70;99.90;;;;;;8423427;28;20354;-72
2023/12/04 09:43:58;;;;;;;;;;;2.70;99.90;;;;;;8438894;28;20002;-72
2023/12/04 09:48:00;;;;;;;;;;;2.70;99.90;;;;;;8427729;28;20342;-72
2023/12/04 09:52:02;;;;;;;;;;;2.70;99.90;;;;;;8428593;28;19924;-73
2023/12/04 09:56:05;;;;;;;;;;;2.70;99.90;;;;;;8425999;28;20393;-72
2023/12/04 10:00:08;;;;;;;;;;;2.70;99.90;;;;;;8424656;28;19928;-72
2023/12/04 10:04:10;;;;;;;;;;;2.70;99.90;;;;;;8426908;28;19950;-72
2023/12/04 10:08:12;;;;;;;;;;;2.80;99.90;;;;;;8425981;28;20367;-72
2023/12/04 10:12:18;;;;;;;;;;;2.80;99.90;;;;;;8414697;28;19932;-72
2023/12/04 10:16:38;;;;;;;;;;;2.90;99.90;;;;;;8416978;28;19928;-72
2023/12/04 10:20:51;;;;;;;;;;;2.90;99.90;;;;;;8421424;28;19932;-72
2023/12/04 10:24:53;;;;;;;;;;;3.00;99.90;;;;;;8423567;28;19931;-72
2023/12/04 10:28:58;;;;;;;;;;;3.00;99.90;;;;;;8416236;28;20675;-71
2023/12/04 10:33:04;;;;;;;;;;;3.10;99.90;;;;;;8421874;28;19928;-72
2023/12/04 10:37:06;;;;;;;;;;;3.10;99.90;;;;;;8422907;28;19924;-72
2023/12/04 10:41:12;;;;;;;;;;;3.20;99.90;;;;;;8419247;28;19946;-72
2023/12/04 10:45:13;;;;;;;;;;;3.20;99.90;;;;;;8419626;28;20017;-72
2023/12/04 10:49:15;;;;;;;;;;;3.20;99.90;;;;;;8422057;28;20299;-72
2023/12/04 10:53:17;;;;;;;;;;;3.20;99.90;;;;;;8420041;28;19928;-72
2023/12/04 10:57:25;;;;;;;;;;;3.20;99.90;;;;;;8408125;28;19967;-72
2023/12/04 11:01:28;;;;;;;;;;;3.30;99.90;;;;;;8432962;28;19923;-73
2023/12/04 11:05:32;;;;;;;;;;;3.30;99.90;;;;;;8425938;28;20397;-72
2023/12/04 11:09:35;;;;;;;;;;;3.30;99.90;;;;;;8418314;28;19932;-72
2023/12/04 11:13:43;;;;;;;;;;;3.30;99.90;;;;;;8421146;28;19982;-73
2023/12/04 11:17:48;;;;;;;;;;;3.40;99.90;;;;;;8414533;28;19967;-72
2023/12/04 11:21:51;;;;;;;;;;;3.30;99.90;;;;;;8422548;28;19925;-72
2023/12/04 11:25:53;;;;;;;;;;;3.30;99.90;;;;;;8419649;28;20136;-72
2023/12/04 11:29:54;;;;;;;;;;;3.30;99.90;;;;;;8411801;28;19928;-73
2023/12/04 11:34:01;;;;;;;;;;;3.30;99.90;;;;;;8409860;28;20292;-72
2023/12/04 11:38:04;;;;;;;;;;;3.40;99.90;;;;;;8422227;28;20378;-72
2023/12/04 11:42:06;;;;;;;;;;;3.40;99.90;;;;;;8422386;28;20256;-72
2023/12/04 11:46:08;;;;;;;;;;;3.40;99.90;;;;;;8416497;28;19928;-72
2023/12/04 11:50:11;;;;;;;;;;;3.40;99.90;;;;;;8413160;28;20299;-72
2023/12/04 11:54:22;;;;;;;;;;;3.40;99.90;;;;;;8423912;28;19924;-72
2023/12/04 11:58:24;;;;;;;;;;;3.40;99.90;;;;;;8425400;28;19939;-72
2023/12/04 12:02:26;;;;;;;;;;;3.40;99.90;;;;;;8433973;28;19924;-72
2023/12/04 12:06:28;;;;;;;;;;;3.40;99.90;;;;;;8420864;28;19924;-72
2023/12/04 12:10:30;;;;;;;;;;;3.40;99.90;;;;;;8419583;28;19924;-72
2023/12/04 12:14:31;;;;;;;;;;;3.40;99.90;;;;;;8423765;28;19924;-72
2023/12/04 12:18:36;;;;;;;;;;;3.50;99.90;;;;;;8420052;28;19928;-72
2023/12/04 12:22:41;;;;;;;;;;;3.50;99.90;;;;;;8419010;28;19924;-72
2023/12/04 12:26:42;;;;;;;;;;;3.50;99.90;;;;;;8419291;28;20291;-72
2023/12/04 12:30:45;;;;;;;;;;;3.50;99.90;;;;;;8432560;28;19931;-72
2023/12/04 12:34:47;;;;;;;;;;;3.50;99.90;;;;;;8426519;28;19935;-72
2023/12/04 12:38:49;;;;;;;;;;;3.60;99.90;;;;;;8421841;28;19930;-72
2023/12/04 12:42:52;;;;;;;;;;;3.50;99.90;;;;;;8430245;28;19924;-72
2023/12/04 12:46:54;;;;;;;;;;;3.50;99.90;;;;;;8438676;28;19964;-72
2023/12/04 12:50:55;;;;;;;;;;;3.60;99.90;;;;;;8440179;28;19951;-72
2023/12/04 12:54:57;;;;;;;;;;;3.60;99.90;;;;;;8430614;28;19931;-72
2023/12/04 12:58:59;;;;;;;;;;;3.60;99.90;;;;;;8409515;28;20327;-72
2023/12/04 13:03:01;;;;;;;;;;;3.60;99.90;;;;;;8415343;28;19932;-72
2023/12/04 13:07:04;;;;;;;;;;;3.70;99.90;;;;;;8418004;28;19928;-72
2023/12/04 13:11:05;;;;;;;;;;;3.60;99.90;;;;;;8422936;28;19924;-72
2023/12/04 13:15:07;;;;;;;;;;;3.60;99.90;;;;;;8418108;28;19928;-72
2023/12/04 13:19:09;;;;;;;;;;;3.50;99.90;;;;;;8414962;28;19986;-72
2023/12/04 13:23:11;;;;;;;;;;;3.50;99.90;;;;;;8425103;28;19928;-72
2023/12/04 13:27:13;;;;;;;;;;;3.40;99.90;;;;;;8426496;28;19928;-72
2023/12/04 13:31:15;;;;;;;;;;;3.40;99.90;;;;;;8425306;28;19928;-72
2023/12/04 13:35:16;;;;;;;;;;;3.40;99.90;;;;;;8424111;28;19931;-72
2023/12/04 13:39:47;;;;;;;;;;;3.40;99.90;;;;;;8422486;28;19924;-72
2023/12/04 13:43:51;;;;;;;;;;;3.40;99.90;;;;;;8425962;28;20271;-72
2023/12/04 13:47:53;;;;;;;;;;;3.40;99.90;;;;;;8417198;28;19935;-72
2023/12/04 13:51:55;;;;;;;;;;;3.40;99.90;;;;;;8403240;28;19939;-72
2023/12/04 14:00:01;;;;;;;;;;;3.30;99.90;;;;;;8396162;28;20028;-73
2023/12/04 14:04:04;;;;;;;;;;;3.30;99.90;;;;;;8390839;28;19936;-72
2023/12/04 14:08:06;;;;;;;;;;;3.30;99.90;;;;;;8414345;28;20786;-72
2023/12/04 14:12:08;;;;;;;;;;;3.30;99.90;;;;;;8418898;28;19932;-72
2023/12/04 14:16:10;;;;;;;;;;;3.30;99.90;;;;;;8427948;28;19924;-72
2023/12/04 14:20:18;;;;;;;;;;;3.40;99.90;;;;;;8419435;28;19986;-72
2023/12/04 14:24:21;;;;;;;;;;;3.40;99.90;;;;;;8422685;28;19924;-72
2023/12/04 14:28:23;;;;;;;;;;;3.40;99.90;;;;;;8440788;28;19928;-72
2023/12/04 14:32:29;;;;;;;;;;;3.40;99.90;;;;;;8435253;28;19924;-72
2023/12/04 14:36:38;;;;;;;;;;;3.40;99.90;;;;;;8436529;28;20377;-73
2023/12/04 14:40:40;;;;;;;;;;;3.40;99.90;;;;;;8425764;28;19962;-72
2023/12/04 14:44:42;;;;;;;;;;;3.40;99.90;;;;;;8429512;28;19975;-72
2023/12/04 14:48:44;;;;;;;;;;;3.30;99.90;;;;;;8427346;28;20715;-72
2023/12/04 14:52:50;;;;;;;;;;;3.30;99.90;;;;;;8432305;28;20384;-73
2023/12/04 15:18:42;;;;;;;;;;;3.30;99.90;;;;;;8406472;28;19924;-72
2023/12/04 15:22:45;;;;;;;;;;;3.30;99.90;;;;;;8415679;28;19933;-72
2023/12/04 15:26:46;;;;;;;;;;;3.30;99.90;;;;;;8430396;28;20361;-72
2023/12/04 15:30:49;;;;;;;;;;;3.30;99.90;;;;;;8409472;28;19928;-72
2023/12/04 15:34:50;;;;;;;;;;;3.30;99.90;;;;;;8437642;28;20022;-72
2023/12/04 15:38:52;;;;;;;;;;;3.30;99.90;;;;;;8420616;28;19937;-72
2023/12/04 15:42:54;;;;;;;;;;;3.30;99.90;;;;;;8428715;28;19924;-72
2023/12/04 15:46:56;;;;;;;;;;;3.30;99.90;;;;;;8422474;28;20391;-72
2023/12/04 16:01:06;;;;;;;;;;;3.10;99.90;;;;;;8420460;28;19950;-72
2023/12/04 16:05:11;;;;;;;;;;;3.10;99.90;;;;;;8423675;28;19951;-72
2023/12/04 16:09:14;;;;;;;;;;;3.10;99.90;;;;;;8433361;28;19959;-72
2023/12/04 16:13:16;;;;;;;;;;;3.10;99.90;;;;;;8423324;28;19931;-72
2023/12/04 16:17:18;;;;;;;;;;;3.10;99.90;;;;;;8414449;28;19931;-72
2023/12/04 16:21:21;;;;;;;;;;;3.10;99.90;;;;;;8428284;28;19948;-72
2023/12/04 16:25:24;;;;;;;;;;;3.10;99.90;;;;;;8426762;28;19924;-73
2023/12/04 16:29:30;;;;;;;;;;;3.10;99.90;;;;;;8442977;28;19936;-73
2023/12/04 16:33:32;;;;;;;;;;;3.10;99.90;;;;;;8428722;28;19931;-72
2023/12/04 16:37:34;;;;;;;;;;;3.10;99.90;;;;;;8435734;28;19932;-72
2023/12/04 16:41:36;;;;;;;;;;;3.10;99.90;;;;;;8391346;28;19936;-72
2023/12/04 16:45:38;;;;;;;;;;;3.00;99.90;;;;;;8395519;28;19936;-73
2023/12/04 16:49:40;;;;;;;;;;;3.00;99.90;;;;;;8391790;28;20018;-72
2023/12/04 16:53:42;;;;;;;;;;;3.00;99.90;;;;;;8402599;28;19978;-73
2023/12/04 16:57:44;;;;;;;;;;;3.00;99.90;;;;;;8389484;28;20190;-72
2023/12/04 17:01:46;;;;;;;;;;;3.00;99.90;;;;;;8396372;28;20300;-73
2023/12/04 17:05:47;;;;;;;;;;;3.00;99.90;;;;;;8389269;28;19975;-72
2023/12/04 17:09:52;;;;;;;;;;;3.00;99.90;;;;;;8402911;28;19933;-72
2023/12/04 17:13:54;;;;;;;;;;;3.00;99.90;;;;;;8405100;28;19967;-73
2023/12/04 17:17:57;;;;;;;;;;;3.00;99.90;;;;;;8401403;28;19950;-72
2023/12/04 17:21:59;;;;;;;;;;;3.00;99.90;;;;;;8411482;28;19924;-72
2023/12/04 17:26:01;;;;;;;;;;;3.00;99.90;;;;;;8407525;28;19938;-72
2023/12/04 17:30:03;;;;;;;;;;;3.00;99.90;;;;;;8404506;28;19925;-72
2023/12/04 17:34:05;;;;;;;;;;;3.00;99.90;;;;;;8412395;28;20397;-73
2023/12/04 17:38:07;;;;;;;;;;;3.10;99.90;;;;;;8415171;28;19924;-73
2023/12/04 17:42:09;;;;;;;;;;;3.00;99.90;;;;;;8412105;28;20467;-72
2023/12/04 17:46:10;;;;;;;;;;;3.00;99.90;;;;;;8409427;28;19971;-73
2023/12/04 17:50:12;;;;;;;;;;;3.00;99.90;;;;;;8410342;28;19947;-72
2023/12/04 17:54:14;;;;;;;;;;;3.00;99.90;;;;;;8404967;28;20383;-72
2023/12/04 17:58:16;;;;;;;;;;;3.00;99.90;;;;;;8405008;28;19930;-72
2023/12/04 18:02:17;;;;;;;;;;;3.00;99.90;;;;;;8410664;28;19939;-72
2023/12/04 18:16:27;;;;;;;;;;;2.90;99.90;;;;;;8404058;28;20075;-72
2023/12/04 18:20:29;;;;;;;;;;;2.90;99.90;;;;;;8407894;28;19929;-73
2023/12/04 18:24:31;;;;;;;;;;;2.90;99.90;;;;;;8405141;28;19932;-72
2023/12/04 18:28:33;;;;;;;;;;;2.90;99.90;;;;;;8409263;28;19978;-72
2023/12/04 18:32:35;;;;;;;;;;;2.90;99.90;;;;;;8408283;28;19928;-72
2023/12/04 18:36:48;;;;;;;;;;;2.90;99.90;;;;;;8409389;28;19986;-72
2023/12/04 18:40:50;;;;;;;;;;;2.90;99.90;;;;;;8409851;28;19924;-73
2023/12/04 18:44:52;;;;;;;;;;;2.90;99.90;;;;;;8407111;28;19932;-72
2023/12/04 18:48:54;;;;;;;;;;;2.80;99.90;;;;;;8405072;28;19924;-72
2023/12/04 18:52:56;;;;;;;;;;;2.80;99.90;;;;;;8406110;28;19932;-72
2023/12/04 18:56:58;;;;;;;;;;;2.80;99.90;;;;;;8403657;28;21049;-73
2023/12/04 19:01:00;;;;;;;;;;;2.80;99.90;;;;;;8407660;28;19929;-72
2023/12/04 19:05:02;;;;;;;;;;;2.80;99.90;;;;;;8406616;28;20805;-72
2023/12/04 19:09:04;;;;;;;;;;;2.80;99.90;;;;;;8407394;28;19977;-72
2023/12/04 19:13:06;;;;;;;;;;;2.80;99.90;;;;;;8406351;28;20437;-73
2023/12/04 19:17:08;;;;;;;;;;;2.80;99.90;;;;;;8407103;28;19932;-72
2023/12/04 19:21:09;;;;;;;;;;;2.80;99.90;;;;;;8407047;28;19925;-72
2023/12/04 19:25:11;;;;;;;;;;;2.80;99.90;;;;;;8409204;28;19932;-72
2023/12/04 19:29:13;;;;;;;;;;;2.80;99.90;;;;;;8410662;28;19986;-72
2023/12/04 19:33:23;;;;;;;;;;;2.80;99.90;;;;;;8405337;28;20056;-72
2023/12/04 19:37:29;;;;;;;;;;;2.80;99.90;;;;;;8404910;28;19932;-73
2023/12/04 19:41:31;;;;;;;;;;;2.90;99.90;;;;;;8402792;28;19924;-72
2023/12/04 19:45:33;;;;;;;;;;;2.90;99.90;;;;;;8408152;28;19974;-72
2023/12/04 19:49:34;;;;;;;;;;;2.90;99.90;;;;;;8407567;28;19928;-72
2023/12/04 19:53:38;;;;;;;;;;;2.90;99.90;;;;;;8416724;28;19931;-72
2023/12/04 19:57:39;;;;;;;;;;;2.90;99.90;;;;;;8416493;28;19940;-72
2023/12/04 20:01:41;;;;;;;;;;;2.90;99.90;;;;;;8417399;28;19954;-72
2023/12/04 20:05:43;;;;;;;;;;;2.90;99.90;;;;;;8417164;28;19930;-74
2023/12/04 20:09:44;;;;;;;;;;;2.90;99.90;;;;;;8416083;28;19932;-73
2023/12/04 20:13:47;;;;;;;;;;;2.90;99.90;;;;;;8415592;28;19928;-72
2023/12/04 20:17:48;;;;;;;;;;;2.90;99.90;;;;;;8416535;28;19924;-72
2023/12/04 20:21:50;;;;;;;;;;;3.00;99.90;;;;;;8423493;28;20394;-72
2023/12/04 20:25:52;;;;;;;;;;;3.00;99.90;;;;;;8414879;28;19954;-73
2023/12/04 20:29:54;;;;;;;;;;;3.00;99.90;;;;;;8424524;28;19924;-72
2023/12/04 20:33:55;;;;;;;;;;;3.00;99.90;;;;;;8414292;28;19928;-72
2023/12/04 20:37:57;;;;;;;;;;;3.00;99.90;;;;;;8448366;27;19925;-72
2023/12/04 20:41:59;;;;;;;;;;;3.00;99.90;;;;;;8416328;28;19928;-72
2023/12/04 20:46:05;;;;;;;;;;;3.00;99.90;;;;;;8412696;28;19932;-72
2023/12/04 20:50:09;;;;;;;;;;;3.10;99.90;;;;;;8412208;28;20447;-72
2023/12/04 20:54:11;;;;;;;;;;;3.10;99.90;;;;;;8416703;28;19930;-72
2023/12/04 20:58:15;;;;;;;;;;;3.10;99.90;;;;;;8415262;28;19924;-72
2023/12/04 21:02:17;;;;;;;;;;;3.10;99.90;;;;;;8421025;28;19924;-72
2023/12/04 21:06:19;;;;;;;;;;;3.10;99.90;;;;;;8406546;28;20015;-72
2023/12/04 21:10:21;;;;;;;;;;;3.10;99.90;;;;;;8414795;28;20027;-73
2023/12/04 21:14:23;;;;;;;;;;;3.20;99.90;;;;;;8410085;28;20326;-73
2023/12/04 21:18:24;;;;;;;;;;;3.20;99.90;;;;;;8411470;28;19931;-72
2023/12/04 21:22:26;;;;;;;;;;;3.20;99.90;;;;;;8411190;28;20550;-73
2023/12/04 21:26:28;;;;;;;;;;;3.20;99.90;;;;;;8418307;28;19975;-72
2023/12/04 21:30:30;;;;;;;;;;;3.20;99.90;;;;;;8413328;28;19924;-73
2023/12/04 21:34:32;;;;;;;;;;;3.20;99.90;;;;;;8409968;28;19924;-72
2023/12/04 21:38:34;;;;;;;;;;;3.30;99.90;;;;;;8414981;28;19924;-72
2023/12/04 21:42:35;;;;;;;;;;;3.30;99.90;;;;;;8417733;28;19924;-72
2023/12/04 21:46:37;;;;;;;;;;;3.30;99.90;;;;;;8420859;28;19924;-72
2023/12/04 21:50:39;;;;;;;;;;;3.30;99.90;;;;;;8413989;28;20370;-72
2023/12/04 21:54:40;;;;;;;;;;;3.30;99.90;;;;;;8409738;28;19932;-72
2023/12/04 21:58:42;;;;;;;;;;;3.30;99.90;;;;;;8410037;28;19928;-72
2023/12/04 22:02:44;;;;;;;;;;;3.30;99.90;;;;;;8425230;28;19939;-72
2023/12/04 22:06:46;;;;;;;;;;;3.30;99.90;;;;;;8441646;28;20283;-73
2023/12/04 22:10:48;;;;;;;;;;;3.40;99.90;;;;;;8445712;28;20282;-72
2023/12/04 22:14:50;;;;;;;;;;;3.40;99.90;;;;;;8438310;28;19928;-72
2023/12/04 22:18:51;;;;;;;;;;;3.40;99.90;;;;;;8450837;28;19927;-72
2023/12/04 22:22:53;;;;;;;;;;;3.40;99.90;;;;;;8443259;28;20410;-72
2023/12/04 22:26:55;;;;;;;;;;;3.40;99.90;;;;;;8444580;28;19932;-72
2023/12/04 22:30:57;;;;;;;;;;;3.40;99.90;;;;;;8440536;28;19924;-72
2023/12/04 22:34:59;;;;;;;;;;;3.40;99.90;;;;;;8432126;28;20414;-73
2023/12/04 22:39:00;;;;;;;;;;;3.40;99.90;;;;;;8432085;28;20267;-72
2023/12/04 22:43:02;;;;;;;;;;;3.40;99.90;;;;;;8447614;28;20328;-72
2023/12/04 22:47:04;;;;;;;;;;;3.40;99.90;;;;;;8435219;28;20414;-72
2023/12/04 22:51:06;;;;;;;;;;;3.50;99.90;;;;;;8439410;28;20394;-72
2023/12/04 22:55:07;;;;;;;;;;;3.40;99.90;;;;;;8439140;28;19931;-72
2023/12/04 22:59:09;;;;;;;;;;;3.50;99.90;;;;;;8439952;28;20440;-72
2023/12/04 23:03:11;;;;;;;;;;;3.50;99.90;;;;;;8439921;28;19973;-72
2023/12/04 23:07:13;;;;;;;;;;;3.50;99.90;;;;;;8440771;28;19928;-73
2023/12/04 23:11:15;;;;;;;;;;;3.50;99.90;;;;;;8432728;28;20478;-72
2023/12/04 23:15:16;;;;;;;;;;;3.50;99.90;;;;;;8435857;28;19924;-73
2023/12/04 23:19:18;;;;;;;;;;;3.50;99.90;;;;;;8439594;28;19931;-73
2023/12/04 23:23:20;;;;;;;;;;;3.50;99.90;;;;;;8427878;28;19928;-72
2023/12/04 23:27:23;;;;;;;;;;;3.50;99.90;;;;;;8435189;28;19972;-72
2023/12/04 23:31:32;;;;;;;;;;;3.60;99.90;;;;;;8439054;28;19980;-72
2023/12/04 23:35:34;;;;;;;;;;;3.60;99.90;;;;;;8437404;28;20371;-72
2023/12/04 23:39:36;;;;;;;;;;;3.60;99.90;;;;;;8441347;28;19981;-73
2023/12/04 23:43:37;;;;;;;;;;;3.60;99.90;;;;;;8441723;28;19924;-72
2023/12/04 23:47:39;;;;;;;;;;;3.60;99.90;;;;;;8432508;28;19924;-72
2023/12/04 23:51:41;;;;;;;;;;;3.60;99.90;;;;;;8436813;28;19930;-72
2023/12/04 23:55:42;;;;;;;;;;;3.60;99.90;;;;;;8433400;28;20029;-72
2023/12/04 23:59:44;;;;;;;;;;;3.60;99.90;;;;;;8434149;28;19924;-72
